This is the latest recevied weather packets stored in our database for station/object W5HKR. If no packets are shown the sender has not sent any weather packets the latest 1 day(s).
| Time | Temp. | Humidity | Pressure | Rain* | Wind** | Luminosity | Snow |
|---|---|---|---|---|---|---|---|
| 1778024316 | 18.33° C | 91% | 990.6 hPa | 0 mm | 5.81 m/s, 269° | - | - |
| 1778024037 | 30° C | 67% | 977.2 hPa | 0 mm | 5.81 m/s, 269° | - | - |
| 1778024005 | 30° C | 67% | 977.6 hPa | 0 mm | 5.81 m/s, 268° | - | - |
| 1778023706 | 30.56° C | 66% | 977.6 hPa | 0 mm | 7.15 m/s, 273° | - | - |
| 1778023406 | 30.56° C | 67% | 977.4 hPa | 0 mm | 5.81 m/s, 268° | - | - |
| 1778023106 | 31.11° C | 66% | 976.8 hPa | 0 mm | 5.81 m/s, 270° | - | - |
| 1778022957 | 18.33° C | 91% | 990.6 hPa | 0 mm | 6.26 m/s, 266° | - | - |
| 1778022806 | 18.33° C | 91% | 990.6 hPa | 0 mm | 5.81 m/s, 269° | - | - |
| 1778022505 | 18.33° C | 91% | 990.6 hPa | 0 mm | 6.26 m/s, 272° | - | - |
| 1778022205 | 31.11° C | 66% | 977.3 hPa | 0 mm | 6.26 m/s, 264° | - | - |
| 1778021909 | 18.33° C | 91% | 990.6 hPa | 0 mm | 6.26 m/s, 268° | - | - |
| 1778021876 | 18.33° C | 91% | 990.6 hPa | 0 mm | 6.26 m/s, 268° | - | - |
| 1778021606 | 31.11° C | 65% | 977.1 hPa | 0 mm | 5.81 m/s, 269° | - | - |
| 1778021305 | 31.11° C | 66% | 977.3 hPa | 0 mm | 6.26 m/s, 267° | - | - |
| 1778021008 | 18.33° C | 91% | 990.6 hPa | 0 mm | 6.26 m/s, 265° | - | - |
| 1778020797 | 30.56° C | 68% | 977 hPa | 0 mm | 6.26 m/s, 269° | - | - |
| 1778020707 | 18.33° C | 91% | 990.6 hPa | 0 mm | 5.81 m/s, 270° | - | - |
| 1778020406 | 30.56° C | 66% | 977.5 hPa | 0 mm | 6.26 m/s, 273° | - | - |
| 1778020106 | 18.33° C | 91% | 990.6 hPa | 0 mm | 6.26 m/s, 271° | - | - |
| 1778019806 | 18.33° C | 91% | 990.6 hPa | 0 mm | 6.71 m/s, 268° | - | - |
| 1778019716 | 18.33° C | 91% | 990.6 hPa | 0 mm | 6.26 m/s, 268° | - | - |
| 1778019505 | 18.33° C | 91% | 990.6 hPa | 0 mm | 6.26 m/s, 266° | - | - |
| 1778019206 | 31.11° C | 62% | 977.4 hPa | 0 mm | 5.81 m/s, 263° | - | - |
| 1778018636 | 30.56° C | 65% | 977.7 hPa | 0 mm | 6.71 m/s, 268° | - | - |
| 1778018605 | 18.33° C | 91% | 990.6 hPa | 0 mm | 6.71 m/s, 265° | - | - |
* Rain latest hour (hover to see other rain measurements)
** Current wind speed in m/s (hover to see current wind gust speed)